createdAt,value
2022-08-19T00:00:15.017Z,11.00
2022-08-19T00:03:16.946Z,11.50
2022-08-19T00:05:51.027Z,12.68
2022-08-19T00:08:38.919Z,13.10
2022-08-19T00:11:20.501Z,12.30
2022-08-19T00:14:15.916Z,11.70
2022-08-19T00:16:52.585Z,10.75
2022-08-19T00:19:38.923Z,10.43
2022-08-19T00:22:19.929Z,10.68
2022-08-19T00:25:14.935Z,10.25
2022-08-19T00:28:02.919Z,10.52
2022-08-19T00:30:37.724Z,11.13
2022-08-19T00:33:24.949Z,10.30
2022-08-19T00:36:05.933Z,9.88
2022-08-19T00:38:53.921Z,9.95
2022-08-19T00:41:36.936Z,10.75
2022-08-19T00:44:26.957Z,9.32
2022-08-19T00:47:14.253Z,8.45
2022-08-19T00:50:03.939Z,9.45
2022-08-19T00:52:42.088Z,10.20
2022-08-19T00:55:30.978Z,10.55
2022-08-19T00:58:11.011Z,10.50
2022-08-19T01:00:58.942Z,8.85
2022-08-19T01:03:56.632Z,10.45
2022-08-19T01:06:40.949Z,10.60
2022-08-19T01:09:16.023Z,10.30
2022-08-19T01:12:03.931Z,10.32
2022-08-19T01:14:39.048Z,10.40
2022-08-19T01:17:26.966Z,11.65
2022-08-19T01:20:01.128Z,11.57
2022-08-19T01:22:54.100Z,10.32
2022-08-19T01:25:30.047Z,10.43
2022-08-19T01:28:39.991Z,11.48
2022-08-19T01:31:26.856Z,9.98
2022-08-19T01:34:21.986Z,9.82
2022-08-19T01:37:15.959Z,11.38
2022-08-19T01:40:09.528Z,10.38
2022-08-19T01:42:50.859Z,10.20
2022-08-19T01:45:39.963Z,9.82
2022-08-19T01:48:14.787Z,9.20
2022-08-19T01:51:01.975Z,9.65
2022-08-19T01:53:36.341Z,10.40
2022-08-19T01:56:23.993Z,10.48
2022-08-19T01:59:07.980Z,11.55
2022-08-19T02:01:49.071Z,11.07
2022-08-19T02:04:30.960Z,11.15
2022-08-19T02:07:18.995Z,10.65
2022-08-19T02:09:58.976Z,11.70
2022-08-19T02:12:51.006Z,11.95
2022-08-19T02:15:33.006Z,10.75
2022-08-19T02:18:14.181Z,10.43
2022-08-19T02:20:54.983Z,10.80
2022-08-19T02:23:36.058Z,10.10
2022-08-19T02:26:18.002Z,11.32
2022-08-19T02:28:58.086Z,10.43
2022-08-19T02:31:38.999Z,9.95
2022-08-19T02:34:19.105Z,9.77
2022-08-19T02:37:06.000Z,9.70
2022-08-19T02:39:39.250Z,10.00
2022-08-19T02:42:25.984Z,9.15
2022-08-19T02:45:01.036Z,9.93
2022-08-19T02:47:47.999Z,10.75
2022-08-19T02:50:28.978Z,9.98
2022-08-19T02:53:15.989Z,10.20
2022-08-19T02:56:01.007Z,9.38
2022-08-19T02:58:56.018Z,11.15
2022-08-19T03:01:44.042Z,11.02
2022-08-19T03:04:20.460Z,11.23
2022-08-19T03:07:10.859Z,11.75
2022-08-19T03:09:45.082Z,12.35
2022-08-19T03:12:32.007Z,12.95
2022-08-19T03:15:06.145Z,12.43
2022-08-19T03:17:53.014Z,11.75
2022-08-19T03:20:27.455Z,12.10
2022-08-19T03:23:14.001Z,13.15
2022-08-19T03:26:02.722Z,13.73
2022-08-19T03:28:58.050Z,12.82
2022-08-19T03:31:45.251Z,11.95
2022-08-19T03:34:42.019Z,14.00
2022-08-19T03:37:23.507Z,12.73
2022-08-19T03:40:03.087Z,13.63
2022-08-19T03:42:49.181Z,14.20
2022-08-19T03:45:31.119Z,13.25
2022-08-19T03:48:12.087Z,12.05
2022-08-19T03:50:53.031Z,14.65
2022-08-19T03:53:35.102Z,13.20
2022-08-19T03:56:17.011Z,13.48
2022-08-19T03:58:58.120Z,12.25
2022-08-19T04:01:38.038Z,13.13
2022-08-19T04:04:19.972Z,13.63
2022-08-19T04:07:00.044Z,11.40
2022-08-19T04:09:49.051Z,12.82
2022-08-19T04:12:29.034Z,10.75
2022-08-19T04:15:10.093Z,11.15
2022-08-19T04:17:50.035Z,11.63
2022-08-19T04:20:31.164Z,11.15
2022-08-19T04:23:11.037Z,12.43
2022-08-19T04:25:59.060Z,11.13
2022-08-19T04:28:39.047Z,10.93
2022-08-19T04:31:33.031Z,11.27
2022-08-19T04:34:16.049Z,12.35
2022-08-19T04:37:05.062Z,11.38
2022-08-19T04:39:58.796Z,11.15
2022-08-19T04:42:50.034Z,11.57
2022-08-19T04:45:24.293Z,11.40
2022-08-19T04:48:26.361Z,12.27
2022-08-19T04:51:02.052Z,11.95
2022-08-19T04:53:52.071Z,12.70
2022-08-19T04:56:27.457Z,11.13
2022-08-19T04:59:16.057Z,12.68
2022-08-19T05:01:50.886Z,12.43
2022-08-19T05:04:39.053Z,11.73
2022-08-19T05:07:19.033Z,12.07
2022-08-19T05:10:00.198Z,13.57
2022-08-19T05:12:41.079Z,12.55
2022-08-19T05:15:22.115Z,13.55
2022-08-19T05:18:21.066Z,12.65
2022-08-19T05:21:20.896Z,12.35
2022-08-19T05:24:01.068Z,13.00
2022-08-19T05:26:49.195Z,11.50
2022-08-19T05:29:35.544Z,10.68
2022-08-19T05:32:17.144Z,11.18
2022-08-19T05:34:58.101Z,10.68
2022-08-19T05:37:41.359Z,10.30
2022-08-19T05:40:22.118Z,10.00
2022-08-19T05:43:03.160Z,9.80
2022-08-19T05:45:48.070Z,9.68
2022-08-19T05:48:29.278Z,9.30
2022-08-19T05:51:16.109Z,9.70
2022-08-19T05:53:58.847Z,8.63
2022-08-19T05:56:40.102Z,9.05
2022-08-19T05:59:24.992Z,9.13
2022-08-19T06:02:04.907Z,8.43
2022-08-19T06:04:45.035Z,8.05
2022-08-19T06:07:24.959Z,8.55
2022-08-19T06:10:05.012Z,8.85
2022-08-19T06:12:44.885Z,8.63
2022-08-19T06:15:27.410Z,8.43
2022-08-19T06:18:08.885Z,8.73
2022-08-19T06:20:57.901Z,8.20
2022-08-19T06:23:31.842Z,8.60
2022-08-19T06:26:19.913Z,8.43
2022-08-19T06:28:53.662Z,8.27
2022-08-19T06:31:41.899Z,7.72
2022-08-19T06:34:15.697Z,8.40
2022-08-19T06:37:04.919Z,7.72
2022-08-19T06:39:58.965Z,7.93
2022-08-19T06:42:54.509Z,7.75
2022-08-19T06:45:35.939Z,7.65
2022-08-19T06:48:34.666Z,7.93
2022-08-19T06:51:30.311Z,8.65
2022-08-19T06:54:19.319Z,8.45
2022-08-19T06:57:16.912Z,7.20
2022-08-19T07:00:03.913Z,8.00
2022-08-19T07:02:38.998Z,7.70
2022-08-19T07:05:28.924Z,7.68
2022-08-19T07:08:08.933Z,8.05
2022-08-19T07:11:02.900Z,8.20
2022-08-19T07:13:56.930Z,7.38
2022-08-19T07:16:42.478Z,7.80
2022-08-19T07:19:33.941Z,6.97
2022-08-19T07:22:17.291Z,7.22
2022-08-19T07:25:03.949Z,7.28
2022-08-19T07:27:39.687Z,6.97
2022-08-19T07:30:26.941Z,7.32
2022-08-19T07:33:07.946Z,7.55
2022-08-19T07:35:55.033Z,7.20
2022-08-19T07:38:35.009Z,8.63
2022-08-19T07:41:17.944Z,7.35
2022-08-19T07:44:05.968Z,8.20
2022-08-19T07:46:41.981Z,7.05
2022-08-19T07:49:29.954Z,6.68
2022-08-19T07:52:13.959Z,6.60
2022-08-19T07:54:55.015Z,7.25
2022-08-19T07:57:35.088Z,6.50
2022-08-19T08:00:17.598Z,6.95
2022-08-19T08:02:59.949Z,7.05
2022-08-19T08:05:59.734Z,6.45
2022-08-19T08:08:52.953Z,6.30
2022-08-19T08:11:34.970Z,6.38
2022-08-19T08:14:37.948Z,5.90
2022-08-19T08:17:30.845Z,6.30
2022-08-19T08:20:26.946Z,6.32
2022-08-19T08:23:26.174Z,6.20
2022-08-19T08:26:12.985Z,5.93
2022-08-19T08:28:50.225Z,6.15
2022-08-19T08:31:36.997Z,5.38
2022-08-19T08:34:17.973Z,5.65
2022-08-19T08:37:11.982Z,7.07
2022-08-19T08:39:59.045Z,6.10
2022-08-19T08:42:45.974Z,5.65
2022-08-19T08:45:42.966Z,5.75
2022-08-19T08:48:53.949Z,5.80
2022-08-19T08:52:00.104Z,5.60
2022-08-19T08:54:54.922Z,5.43
2022-08-19T08:57:56.404Z,6.05
2022-08-19T09:00:46.961Z,5.47
2022-08-19T09:03:31.393Z,5.72
2022-08-19T09:06:23.968Z,5.65
2022-08-19T09:09:49.572Z,5.18
2022-08-19T09:12:34.992Z,5.55
2022-08-19T09:15:17.276Z,5.80
2022-08-19T09:17:57.992Z,5.93
2022-08-19T09:20:32.557Z,5.38
2022-08-19T09:23:26.922Z,5.25
2022-08-19T09:26:01.704Z,5.03
2022-08-19T09:28:51.010Z,5.68
2022-08-19T09:31:27.851Z,4.97
2022-08-19T09:34:20.755Z,5.03
2022-08-19T09:37:06.011Z,5.85
2022-08-19T09:39:55.074Z,5.80
2022-08-19T09:42:30.301Z,5.28
2022-08-19T09:45:30.997Z,5.30
2022-08-19T09:48:25.021Z,5.72
2022-08-19T09:51:16.026Z,4.90
2022-08-19T09:53:52.925Z,5.60
2022-08-19T09:56:40.042Z,5.22
2022-08-19T09:59:24.026Z,5.47
2022-08-19T10:02:22.023Z,5.50
2022-08-19T10:05:28.030Z,5.82
2022-08-19T10:08:13.103Z,5.70
2022-08-19T10:11:28.575Z,5.25
2022-08-19T10:14:24.021Z,5.90
2022-08-19T10:17:19.336Z,4.93
2022-08-19T10:20:00.347Z,5.20
2022-08-19T10:22:43.040Z,5.53
2022-08-19T10:25:23.109Z,6.07
2022-08-19T10:28:03.060Z,6.07
2022-08-19T10:30:43.129Z,5.35
2022-08-19T10:33:38.420Z,6.45
2022-08-19T10:36:27.090Z,5.70
2022-08-19T10:39:09.016Z,5.38
2022-08-19T10:41:50.114Z,5.28
2022-08-19T10:44:32.261Z,5.63
2022-08-19T10:47:17.738Z,5.50
2022-08-19T10:50:28.518Z,5.60
2022-08-19T10:53:13.172Z,5.75
2022-08-19T10:56:13.023Z,5.85
2022-08-19T10:59:00.042Z,5.60
2022-08-19T11:01:35.883Z,5.97
2022-08-19T11:04:28.911Z,5.20
2022-08-19T11:07:05.591Z,5.88
2022-08-19T11:09:54.079Z,5.80
2022-08-19T11:12:35.063Z,5.75
2022-08-19T11:15:17.127Z,6.13
2022-08-19T11:18:01.055Z,5.82
2022-08-19T11:20:41.148Z,6.22
2022-08-19T11:23:22.047Z,5.90
2022-08-19T11:26:03.371Z,6.00
2022-08-19T11:28:50.061Z,5.95
2022-08-19T11:31:29.270Z,5.97
2022-08-19T11:34:18.065Z,5.80
2022-08-19T11:36:53.622Z,6.30
2022-08-19T11:39:43.138Z,6.05
2022-08-19T11:42:37.408Z,5.90
2022-08-19T11:45:24.089Z,5.93
2022-08-19T11:48:05.074Z,5.45
2022-08-19T11:50:59.046Z,5.03
2022-08-19T11:53:47.076Z,5.93
2022-08-19T11:56:28.052Z,5.27
2022-08-19T11:59:22.071Z,5.80
2022-08-19T12:02:09.079Z,5.68
2022-08-19T12:04:42.209Z,5.35
2022-08-19T12:07:30.069Z,5.53
2022-08-19T12:10:04.135Z,5.50
2022-08-19T12:12:56.397Z,6.80
2022-08-19T12:15:43.299Z,5.60
2022-08-19T12:18:24.123Z,5.65
2022-08-19T12:21:04.427Z,5.57
2022-08-19T12:23:45.080Z,6.60
2022-08-19T12:26:19.532Z,6.35
2022-08-19T12:29:07.085Z,5.68
2022-08-19T12:31:40.983Z,6.25
2022-08-19T12:34:30.092Z,5.60
2022-08-19T12:37:18.125Z,5.70
2022-08-19T12:39:52.246Z,5.37
2022-08-19T12:42:39.094Z,5.43
2022-08-19T12:45:14.179Z,6.03
2022-08-19T12:48:02.081Z,6.43
2022-08-19T12:50:56.191Z,5.70
2022-08-19T12:53:44.092Z,5.70
2022-08-19T12:56:27.082Z,5.78
2022-08-19T12:59:16.127Z,5.53
2022-08-19T13:01:51.206Z,5.60
2022-08-19T13:04:38.112Z,6.13
2022-08-19T13:07:19.085Z,6.03
2022-08-19T13:10:13.139Z,5.50
2022-08-19T13:13:01.108Z,5.88
2022-08-19T13:15:35.166Z,6.20
2022-08-19T13:18:23.112Z,5.65
2022-08-19T13:20:57.483Z,5.90
2022-08-19T13:23:44.136Z,5.50
2022-08-19T13:26:19.286Z,5.97
2022-08-19T13:29:24.129Z,5.88
2022-08-19T13:32:18.531Z,6.07
2022-08-19T13:35:05.110Z,5.72
2022-08-19T13:37:42.132Z,5.80
2022-08-19T13:40:31.130Z,6.07
2022-08-19T13:43:13.507Z,6.25
2022-08-19T13:46:16.117Z,6.30
2022-08-19T13:48:50.241Z,5.85
2022-08-19T13:51:37.130Z,5.45
2022-08-19T13:54:11.326Z,5.90
2022-08-19T13:56:58.137Z,6.20
2022-08-19T13:59:33.584Z,5.72
2022-08-19T14:02:20.152Z,6.05
2022-08-19T14:04:54.178Z,6.20
2022-08-19T14:07:41.134Z,6.22
2022-08-19T14:10:17.251Z,5.72
2022-08-19T14:13:06.156Z,7.30
2022-08-19T14:15:46.213Z,9.50
2022-08-19T14:18:28.599Z,5.90
2022-08-19T14:21:10.188Z,5.80
2022-08-19T14:23:50.153Z,5.93
2022-08-19T14:26:37.330Z,6.10
2022-08-19T14:29:11.823Z,5.93
2022-08-19T14:31:59.168Z,6.82
2022-08-19T14:34:39.179Z,6.22
2022-08-19T14:37:30.149Z,5.82
2022-08-19T14:40:05.000Z,6.03
2022-08-19T14:42:53.164Z,7.00
2022-08-19T14:45:34.273Z,6.30
2022-08-19T14:48:19.111Z,6.03
2022-08-19T14:51:01.139Z,6.78
2022-08-19T14:53:42.150Z,6.30
2022-08-19T14:56:38.183Z,6.10
2022-08-19T14:59:26.180Z,6.68
2022-08-19T15:02:20.153Z,6.43
2022-08-19T15:05:07.157Z,6.03
2022-08-19T15:07:41.886Z,6.18
2022-08-19T15:10:31.183Z,6.53
2022-08-19T15:13:12.150Z,5.75
2022-08-19T15:15:59.169Z,6.10
2022-08-19T15:18:33.616Z,6.05
2022-08-19T15:21:27.134Z,5.82
2022-08-19T15:24:04.584Z,6.53
2022-08-19T15:26:51.181Z,5.97
2022-08-19T15:29:32.168Z,7.28
2022-08-19T15:32:26.163Z,5.68
2022-08-19T15:35:15.210Z,6.05
2022-08-19T15:37:56.298Z,6.05
2022-08-19T15:40:52.195Z,6.28
2022-08-19T15:43:39.190Z,6.43
2022-08-19T15:49:05.217Z,5.85
2022-08-19T15:51:43.054Z,6.57
2022-08-19T15:54:31.234Z,6.50
2022-08-19T15:57:23.587Z,6.00
2022-08-19T16:00:30.210Z,6.38
2022-08-19T16:03:23.215Z,6.38
2022-08-19T16:06:29.214Z,6.75
2022-08-19T16:09:05.287Z,6.95
2022-08-19T16:12:01.444Z,6.55
2022-08-19T16:14:39.791Z,6.93
2022-08-19T16:17:27.191Z,7.22
2022-08-19T16:20:01.264Z,7.40
2022-08-19T16:22:49.220Z,6.60
2022-08-19T16:25:34.220Z,6.80
2022-08-19T16:28:29.217Z,7.00
2022-08-19T16:31:17.216Z,7.13
2022-08-19T16:33:51.272Z,7.43
2022-08-19T16:36:39.224Z,7.30
2022-08-19T16:39:14.384Z,7.28
2022-08-19T16:42:01.233Z,7.00
2022-08-19T16:44:35.305Z,7.30
2022-08-19T16:47:24.199Z,6.85
2022-08-19T16:49:58.301Z,6.65
2022-08-19T16:52:45.223Z,6.82
2022-08-19T16:55:19.894Z,7.00
2022-08-19T16:58:11.255Z,6.80
2022-08-19T17:00:45.390Z,7.10
2022-08-19T17:03:35.768Z,6.82
2022-08-19T17:06:22.227Z,6.95
2022-08-19T17:09:10.235Z,6.30
2022-08-19T17:11:51.515Z,7.25
2022-08-19T17:14:33.245Z,6.82
2022-08-19T17:17:14.772Z,6.95
2022-08-19T17:19:58.245Z,7.35
2022-08-19T17:22:38.343Z,6.78
2022-08-19T17:25:18.242Z,6.57
2022-08-19T17:27:59.285Z,6.97
2022-08-19T17:30:48.262Z,6.90
2022-08-19T17:33:22.310Z,6.93
2022-08-19T17:36:11.225Z,7.30
2022-08-19T17:38:44.527Z,7.53
2022-08-19T17:41:32.231Z,6.75
2022-08-19T17:44:05.380Z,6.88
2022-08-19T17:46:53.267Z,6.68
2022-08-19T17:49:34.259Z,7.50
2022-08-19T17:52:21.240Z,6.70
2022-08-19T17:55:02.250Z,6.93
2022-08-19T17:57:50.272Z,7.47
2022-08-19T18:00:25.328Z,7.05
2022-08-19T18:03:15.252Z,7.75
2022-08-19T18:05:50.380Z,6.85
2022-08-19T18:08:37.272Z,12.93
2022-08-19T18:11:11.383Z,7.78
2022-08-19T18:13:59.262Z,7.32
2022-08-19T18:16:33.358Z,7.22
2022-08-19T18:19:20.238Z,7.10
2022-08-19T18:22:01.340Z,7.30
2022-08-19T18:24:46.071Z,7.28
2022-08-19T18:27:27.700Z,7.45
2022-08-19T18:30:08.285Z,7.03
2022-08-19T18:32:59.277Z,7.10
2022-08-19T18:35:33.334Z,7.40
2022-08-19T18:38:40.291Z,7.43
2022-08-19T18:41:32.917Z,7.50
2022-08-19T18:44:37.275Z,7.80
2022-08-19T18:47:36.271Z,7.60
2022-08-19T18:50:16.364Z,7.25
2022-08-19T18:52:57.290Z,8.40
2022-08-19T18:55:39.313Z,7.07
2022-08-19T18:58:24.448Z,7.93
2022-08-19T19:01:18.334Z,7.80
2022-08-19T19:03:54.265Z,7.00
2022-08-19T19:06:47.293Z,7.45
2022-08-19T19:09:22.752Z,8.00
2022-08-19T19:12:11.305Z,7.47
2022-08-19T19:14:58.293Z,9.40
2022-08-19T19:17:38.298Z,7.85
2022-08-19T19:20:19.869Z,8.18
2022-08-19T19:23:06.308Z,7.70
2022-08-19T19:25:51.049Z,12.15
2022-08-19T19:28:32.382Z,9.95
2022-08-19T19:31:13.305Z,8.57
2022-08-19T19:34:01.320Z,7.75
2022-08-19T19:36:35.341Z,7.40
2022-08-19T19:39:44.896Z,7.30
2022-08-19T19:42:28.289Z,7.30
2022-08-19T19:45:16.289Z,7.07
2022-08-19T19:47:50.278Z,7.47
2022-08-19T19:50:38.313Z,7.30
2022-08-19T19:53:21.349Z,9.07
2022-08-19T19:56:02.662Z,7.90
2022-08-19T19:58:44.293Z,8.40
2022-08-19T20:01:27.182Z,7.75
2022-08-19T20:04:08.314Z,8.55
2022-08-19T20:06:49.402Z,7.53
2022-08-19T20:09:49.646Z,7.72
2022-08-19T20:12:30.387Z,8.57
2022-08-19T20:15:11.340Z,8.10
2022-08-19T20:17:52.395Z,8.50
2022-08-19T20:20:33.354Z,8.05
2022-08-19T20:23:14.980Z,7.63
2022-08-19T20:25:56.360Z,8.43
2022-08-19T20:28:36.451Z,8.48
2022-08-19T20:31:17.332Z,8.35
2022-08-19T20:33:57.555Z,7.80
2022-08-19T20:36:38.329Z,7.47
2022-08-19T20:39:19.404Z,6.90
2022-08-19T20:42:02.334Z,7.80
2022-08-19T20:44:43.394Z,7.35
2022-08-19T20:47:23.337Z,7.32
2022-08-19T20:50:04.522Z,7.50
2022-08-19T20:52:45.331Z,7.43
2022-08-19T20:55:41.356Z,8.00
2022-08-19T20:58:18.556Z,8.52
2022-08-19T21:01:07.389Z,7.93
2022-08-19T21:03:42.917Z,7.28
2022-08-19T21:06:31.358Z,8.75
2022-08-19T21:09:06.219Z,7.30
2022-08-19T21:11:54.371Z,7.05
2022-08-19T21:14:27.961Z,6.82
2022-08-19T21:17:14.352Z,7.20
2022-08-19T21:19:54.357Z,7.40
2022-08-19T21:22:42.358Z,6.78
2022-08-19T21:25:17.220Z,6.28
2022-08-19T21:28:04.363Z,5.95
2022-08-19T21:30:38.327Z,6.85
2022-08-19T21:33:26.381Z,7.20
2022-08-19T21:36:06.515Z,6.53
2022-08-19T21:38:47.371Z,6.55
2022-08-19T21:41:21.436Z,6.00
2022-08-19T21:44:02.397Z,6.28
2022-08-19T21:46:42.466Z,6.90
2022-08-19T21:49:22.381Z,6.35
2022-08-19T21:52:03.448Z,6.57
2022-08-19T21:54:43.356Z,6.75
2022-08-19T21:57:24.591Z,6.10
2022-08-19T22:00:05.360Z,6.30
2022-08-19T22:02:46.448Z,6.10
2022-08-19T22:05:31.389Z,5.47
2022-08-19T22:08:13.640Z,6.00
2022-08-19T22:10:55.389Z,6.30
2022-08-19T22:13:47.369Z,7.10
2022-08-19T22:16:28.398Z,6.85
2022-08-19T22:19:17.396Z,6.72
2022-08-19T22:22:05.397Z,6.70
2022-08-19T22:24:53.416Z,6.75
2022-08-19T22:27:34.372Z,10.02
2022-08-19T22:30:24.411Z,7.07
2022-08-19T22:33:07.386Z,6.75
2022-08-19T22:35:49.453Z,6.32
2022-08-19T22:38:31.410Z,6.60
2022-08-19T22:41:12.451Z,6.18
2022-08-19T22:43:53.415Z,6.43
2022-08-19T22:46:34.497Z,5.97
2022-08-19T22:49:15.408Z,5.43
2022-08-19T22:52:14.979Z,6.45
2022-08-19T22:55:00.385Z,6.03
2022-08-19T22:57:41.538Z,6.07
2022-08-19T23:00:22.395Z,5.13
2022-08-19T23:03:11.403Z,5.97
2022-08-19T23:05:45.359Z,5.47
2022-08-19T23:08:34.445Z,6.03
2022-08-19T23:11:10.712Z,5.97
2022-08-19T23:13:58.417Z,6.22
2022-08-19T23:16:34.694Z,6.40
2022-08-19T23:19:22.431Z,6.15
2022-08-19T23:22:17.415Z,7.43
2022-08-19T23:25:17.428Z,5.93
2022-08-19T23:28:11.020Z,5.68
2022-08-19T23:30:59.421Z,5.25
2022-08-19T23:33:50.811Z,5.65
2022-08-19T23:36:38.428Z,5.55
2022-08-19T23:39:18.423Z,6.10
2022-08-19T23:42:12.461Z,5.90
2022-08-19T23:45:06.409Z,5.82
2022-08-19T23:47:55.644Z,5.78
2022-08-19T23:50:38.434Z,5.40
2022-08-19T23:53:33.418Z,5.80
2022-08-19T23:56:20.421Z,5.78
2022-08-19T23:58:55.152Z,6.00
